Thursday, September 20, 2018, 4:58 PM EDT
Back to Local

KWVL, Waterville, Waterville Robert Lafleur Airport

Location: Waterville, ME, United States Lat: 44.533
Local Time: 4:58 PM EDT (20:58 GMT) Lon: -69.683
Time Zone: US/Eastern Elev: 334 ft

Show me the last for .
Show Decoded

2018-09-20 15:56 METAR KWVL 201956Z AUTO 00000KT 10SM CLR 16/11 A3023 RMK AO2 SLP263 T01610106 =
2018-09-20 14:56 METAR KWVL 201856Z AUTO VRB04KT 10SM CLR 17/10 A3024 RMK AO2 SLP266 T01670100 =
2018-09-20 13:56 METAR KWVL 201756Z AUTO 00000KT 10SM OVC055 16/10 A3022 RMK AO2 SLP260 T01560100
                 10156 20106 56023 =
2018-09-20 12:56 METAR KWVL 201656Z AUTO 00000KT 10SM FEW020 BKN055 14/10 A3023 RMK AO2 SLP264
                 T01440100 =
2018-09-20 11:56 METAR KWVL 201556Z AUTO 00000KT 10SM OVC055 13/09 A3027 RMK AO2 SLP278 T01330094
                 $ =
2018-09-20 10:56 METAR KWVL 201456Z AUTO 00000KT 10SM SCT055 14/09 A3029 RMK AO2 SLP284 T01390094
                 51011 $ =
2018-09-20 10:53 METAR KWVL 201453Z AUTO 00000KT 6SM HZ SCT055 13/09 A3029 RMK AO2 $ =
2018-09-20 10:42 METAR KWVL 201442Z AUTO VRB04KT 1 1/2SM HZ BKN055 13/09 A3027 RMK AO2 VIS 1/4V5
                 $ =
2018-09-20 09:56 METAR KWVL 201356Z AUTO 04004KT 10SM OVC050 12/08 A3028 RMK AO2 SLP281 T01170083
                 $ =
2018-09-20 08:56 METAR KWVL 201256Z AUTO 02005KT 10SM FEW012 OVC050 11/08 A3026 RMK AO2 SLP273
                 T01110083 $ =
2018-09-20 07:56 METAR KWVL 201156Z AUTO VRB04KT 10SM BKN050 11/08 A3024 RMK AO2 SLP267 T01060083
                 10128 20106 53016 $ =
2018-09-20 05:56 METAR KWVL 200956Z AUTO 04006KT 10SM FEW011 BKN050 11/08 A3020 RMK AO2 SLP253
                 T01060083 $ =
2018-09-20 05:03 METAR KWVL 200903Z AUTO 03006KT 10SM SCT009 OVC050 11/09 A3019 RMK AO2 $ =
2018-09-20 04:56 METAR KWVL 200856Z AUTO 04007KT 10SM BKN011 OVC050 11/09 A3019 RMK AO2 SLP250
                 T01110094 50011 $ =
2018-09-20 04:51 METAR KWVL 200851Z AUTO 04007KT 10SM BKN009 BKN013 OVC050 11/09 A3019 RMK AO2 $
                 =
2018-09-20 04:43 METAR KWVL 200843Z AUTO 03008KT 10SM SCT009 BKN050 12/09 A3019 RMK AO2 $ =
2018-09-20 04:35 METAR KWVL 200835Z AUTO 03008KT 10SM SCT009 BKN012 OVC050 12/10 A3019 RMK AO2 $
                 =
2018-09-20 04:30 METAR KWVL 200830Z AUTO 03007KT 10SM SCT012 BKN050 12/10 A3019 RMK AO2 $ =
2018-09-20 03:56 METAR KWVL 200756Z AUTO 03007KT 10SM BKN010 BKN015 12/10 A3018 RMK AO2 SLP246
                 T01170100 $ =
2018-09-20 02:56 METAR KWVL 200656Z AUTO 04004KT 10SM OVC013 13/11 A3016 RMK AO2 SLP239 T01280106
                 $ =
2018-09-20 01:56 METAR KWVL 200556Z AUTO 04004KT 10SM OVC013 13/11 A3016 RMK AO2 SLP238 T01280111
                 10133 20128 51010 $ =
2018-09-20 01:14 METAR KWVL 200514Z AUTO 04004KT 10SM BKN013 BKN055 13/11 A3015 RMK AO2 $ =
2018-09-19 23:56 METAR KWVL 200356Z AUTO 04006KT 10SM FEW055 13/11 A3014 RMK AO2 SLP233 T01330111
                 $ =
2018-09-19 22:56 METAR KWVL 200256Z AUTO 04006KT 10SM BKN038 BKN060 13/11 A3013 RMK AO2 SLP229
                 T01330111 51013 $ =
2018-09-19 21:56 METAR KWVL 200156Z AUTO 03006KT 10SM OVC036 13/11 A3012 RMK AO2 SLP228 T01330111
                 $ =
2018-09-19 20:56 METAR KWVL 200056Z AUTO 03004KT 10SM OVC034 13/11 A3012 RMK AO2 SLP226 T01280111
                 $ =
2018-09-19 19:56 METAR KWVL 192356Z AUTO 04006KT 10SM FEW030 BKN038 13/11 A3009 RMK AO2 SLP216
                 T01330111 10167 20133 51022 $ =
2018-09-19 18:56 METAR KWVL 192256Z AUTO 03007KT 10SM FEW047 14/11 A3006 RMK AO2 SLP208 T01390106
                 $ =
2018-09-19 17:56 METAR KWVL 192156Z AUTO 03007KT 10SM SCT032 15/11 A3006 RMK AO2 SLP205 T01500111
                 $ =
2018-09-19 17:31 METAR KWVL 192131Z AUTO 05006KT 10SM BKN032 15/11 A3004 RMK AO2 $ =
2018-09-19 17:18 METAR KWVL 192118Z AUTO 04007KT 10SM BKN029 OVC036 16/11 A3003 RMK AO2 $ =

Support USWX by starting your Amazon purchase here.